sensor_id;sensor_type;location;lat;lon;timestamp;pressure;altitude;pressure_sealevel;temperature;humidity
42067;BME280;27734;47.028;28.820;2022-07-29T00:00:16;100700.30;;;25.86;51.14
42067;BME280;27734;47.028;28.820;2022-07-29T00:03:05;100702.23;;;25.80;51.54
42067;BME280;27734;47.028;28.820;2022-07-29T00:05:36;100699.65;;;25.76;50.98
42067;BME280;27734;47.028;28.820;2022-07-29T00:08:09;100698.82;;;25.72;50.97
42067;BME280;27734;47.028;28.820;2022-07-29T00:10:41;100692.64;;;25.69;51.38
42067;BME280;27734;47.028;28.820;2022-07-29T00:13:13;100702.52;;;25.68;51.73
42067;BME280;27734;47.028;28.820;2022-07-29T00:15:45;100699.83;;;25.68;51.33
42067;BME280;27734;47.028;28.820;2022-07-29T00:18:16;100703.42;;;25.67;51.61
42067;BME280;27734;47.028;28.820;2022-07-29T00:20:48;100693.59;;;25.66;51.50
42067;BME280;27734;47.028;28.820;2022-07-29T00:23:19;100696.27;;;25.66;51.76
42067;BME280;27734;47.028;28.820;2022-07-29T00:25:51;100698.09;;;25.65;51.77
42067;BME280;27734;47.028;28.820;2022-07-29T00:28:25;100700.85;;;25.62;52.02
42067;BME280;27734;47.028;28.820;2022-07-29T00:30:58;100701.72;;;25.63;51.78
42067;BME280;27734;47.028;28.820;2022-07-29T00:33:31;100699.03;;;25.63;51.64
42067;BME280;27734;47.028;28.820;2022-07-29T00:36:44;100700.85;;;25.62;51.63
42067;BME280;27734;47.028;28.820;2022-07-29T00:39:23;100699.03;;;25.63;52.00
42067;BME280;27734;47.028;28.820;2022-07-29T00:41:54;100707.97;;;25.65;51.94
42067;BME280;27734;47.028;28.820;2022-07-29T00:44:28;100699.91;;;25.65;52.03
42067;BME280;27734;47.028;28.820;2022-07-29T00:47:07;100698.09;;;25.65;52.07
42067;BME280;27734;47.028;28.820;2022-07-29T00:49:43;100695.58;;;25.58;52.20
42067;BME280;27734;47.028;28.820;2022-07-29T00:52:16;100691.16;;;25.55;52.23
42067;BME280;27734;47.028;28.820;2022-07-29T00:54:57;100693.91;;;25.52;51.89
42067;BME280;27734;47.028;28.820;2022-07-29T00:57:37;100686.83;;;25.50;52.58
42067;BME280;27734;47.028;28.820;2022-07-29T01:00:12;100694.99;;;25.45;52.02
42067;BME280;27734;47.028;28.820;2022-07-29T01:02:55;100694.09;;;25.44;52.48
42067;BME280;27734;47.028;28.820;2022-07-29T01:05:32;100682.44;;;25.45;52.17
42067;BME280;27734;47.028;28.820;2022-07-29T01:08:04;100687.77;;;25.47;52.67
42067;BME280;27734;47.028;28.820;2022-07-29T01:10:39;100677.93;;;25.46;52.16
42067;BME280;27734;47.028;28.820;2022-07-29T01:13:13;100679.89;;;25.39;52.52
42067;BME280;27734;47.028;28.820;2022-07-29T01:15:49;100683.45;;;25.40;52.75
42067;BME280;27734;47.028;28.820;2022-07-29T01:18:28;100679.05;;;25.37;52.86
42067;BME280;27734;47.028;28.820;2022-07-29T01:21:14;100683.45;;;25.40;52.89
42067;BME280;27734;47.028;28.820;2022-07-29T01:24:14;100687.04;;;25.40;53.07
42067;BME280;27734;47.028;28.820;2022-07-29T01:26:51;100679.89;;;25.39;52.44
42067;BME280;27734;47.028;28.820;2022-07-29T01:29:28;100678.11;;;25.38;52.59
42067;BME280;27734;47.028;28.820;2022-07-29T01:32:05;100680.83;;;25.37;52.53
42067;BME280;27734;47.028;28.820;2022-07-29T01:34:45;100680.86;;;25.35;52.70
42067;BME280;27734;47.028;28.820;2022-07-29T01:37:22;100684.52;;;25.33;52.77
42067;BME280;27734;47.028;28.820;2022-07-29T01:39:58;100684.56;;;25.31;52.96
42067;BME280;27734;47.028;28.820;2022-07-29T01:42:36;100693.45;;;25.33;52.72
42067;BME280;27734;47.028;28.820;2022-07-29T01:45:16;100690.84;;;25.30;53.12
42067;BME280;27734;47.028;28.820;2022-07-29T01:47:58;100689.05;;;25.29;53.33
42067;BME280;27734;47.028;28.820;2022-07-29T01:50:36;100692.64;;;25.28;53.41
42067;BME280;27734;47.028;28.820;2022-07-29T01:53:11;100687.41;;;25.22;53.43
42067;BME280;27734;47.028;28.820;2022-07-29T01:55:46;100682.98;;;25.19;53.39
42067;BME280;27734;47.028;28.820;2022-07-29T01:58:20;100692.98;;;25.12;53.78
42067;BME280;27734;47.028;28.820;2022-07-29T02:00:53;100692.98;;;25.12;53.27
42067;BME280;27734;47.028;28.820;2022-07-29T02:03:25;100697.54;;;25.09;53.92
42067;BME280;27734;47.028;28.820;2022-07-29T02:06:00;100692.27;;;25.04;53.76
42067;BME280;27734;47.028;28.820;2022-07-29T02:08:34;100696.77;;;25.02;53.73
42067;BME280;27734;47.028;28.820;2022-07-29T02:11:08;100689.65;;;25.01;53.92
42067;BME280;27734;47.028;28.820;2022-07-29T02:13:41;100690.59;;;24.99;53.89
42067;BME280;27734;47.028;28.820;2022-07-29T02:16:11;100700.42;;;25.00;53.83
42067;BME280;27734;47.028;28.820;2022-07-29T02:18:47;100711.25;;;24.95;54.23
42067;BME280;27734;47.028;28.820;2022-07-29T02:21:22;100706.78;;;24.94;54.07
42067;BME280;27734;47.028;28.820;2022-07-29T02:23:56;100697.83;;;24.95;53.92
42067;BME280;27734;47.028;28.820;2022-07-29T02:26:31;100700.52;;;24.95;53.58
42067;BME280;27734;47.028;28.820;2022-07-29T02:29:05;100687.97;;;24.96;53.71
42067;BME280;27734;47.028;28.820;2022-07-29T02:31:45;100691.48;;;24.98;53.69
42067;BME280;27734;47.028;28.820;2022-07-29T02:34:20;100693.36;;;24.94;53.60
42067;BME280;27734;47.028;28.820;2022-07-29T02:36:51;100686.22;;;24.93;53.31
42067;BME280;27734;47.028;28.820;2022-07-29T02:39:24;100687.06;;;24.97;53.67
42067;BME280;27734;47.028;28.820;2022-07-29T02:41:57;100686.12;;;24.98;53.15
42067;BME280;27734;47.028;28.820;2022-07-29T02:44:31;100694.11;;;25.01;53.11
42067;BME280;27734;47.028;28.820;2022-07-29T02:47:10;100704.01;;;24.99;53.25
42067;BME280;27734;47.028;28.820;2022-07-29T02:49:53;100702.32;;;24.93;53.33
42067;BME280;27734;47.028;28.820;2022-07-29T02:52:29;100698.73;;;24.94;52.94
42067;BME280;27734;47.028;28.820;2022-07-29T02:55:05;100699.61;;;24.94;53.18
42067;BME280;27734;47.028;28.820;2022-07-29T02:57:44;100703.20;;;24.95;53.26
42067;BME280;27734;47.028;28.820;2022-07-29T03:00:18;100708.63;;;24.92;53.01
42067;BME280;27734;47.028;28.820;2022-07-29T03:02:53;100713.94;;;24.95;52.97
42067;BME280;27734;47.028;28.820;2022-07-29T03:05:27;100709.41;;;24.97;52.80
42067;BME280;27734;47.028;28.820;2022-07-29T03:08:00;100710.28;;;24.98;52.86
42067;BME280;27734;47.028;28.820;2022-07-29T03:10:33;100705.78;;;25.00;52.95
42067;BME280;27734;47.028;28.820;2022-07-29T03:13:06;100701.26;;;25.02;52.55
42067;BME280;27734;47.028;28.820;2022-07-29T03:15:39;100697.70;;;25.01;52.73
42067;BME280;27734;47.028;28.820;2022-07-29T03:18:11;100713.81;;;25.01;52.39
42067;BME280;27734;47.028;28.820;2022-07-29T03:20:43;100700.36;;;25.03;52.68
42067;BME280;27734;47.028;28.820;2022-07-29T03:23:20;100712.84;;;25.04;52.52
42067;BME280;27734;47.028;28.820;2022-07-29T03:25:53;100705.69;;;25.04;52.21
42067;BME280;27734;47.028;28.820;2022-07-29T03:28:25;100714.62;;;25.05;51.88
42067;BME280;27734;47.028;28.820;2022-07-29T03:30:57;100706.56;;;25.05;51.84
42067;BME280;27734;47.028;28.820;2022-07-29T03:33:29;100716.43;;;25.04;52.00
42067;BME280;27734;47.028;28.820;2022-07-29T03:36:00;100716.43;;;25.04;51.95
42067;BME280;27734;47.028;28.820;2022-07-29T03:38:35;100720.95;;;25.01;52.03
42067;BME280;27734;47.028;28.820;2022-07-29T03:41:10;100735.41;;;24.95;52.08
42067;BME280;27734;47.028;28.820;2022-07-29T03:43:44;100743.67;;;24.84;52.52
42067;BME280;27734;47.028;28.820;2022-07-29T03:46:18;100744.75;;;24.74;52.89
42067;BME280;27734;47.028;28.820;2022-07-29T03:48:55;100761.92;;;24.65;53.04
42067;BME280;27734;47.028;28.820;2022-07-29T03:51:30;100760.23;;;24.60;53.31
42067;BME280;27734;47.028;28.820;2022-07-29T03:54:02;100762.48;;;24.31;55.36
42067;BME280;27734;47.028;28.820;2022-07-29T03:56:38;100757.59;;;24.02;55.22
42067;BME280;27734;47.028;28.820;2022-07-29T03:59:12;100758.73;;;23.82;55.85
42067;BME280;27734;47.028;28.820;2022-07-29T04:01:44;100757.19;;;23.67;56.01
42067;BME280;27734;47.028;28.820;2022-07-29T04:04:17;100764.52;;;23.55;55.86
42067;BME280;27734;47.028;28.820;2022-07-29T04:06:48;100769.20;;;23.36;56.91
42067;BME280;27734;47.028;28.820;2022-07-29T04:09:20;100765.83;;;23.21;57.42
42067;BME280;27734;47.028;28.820;2022-07-29T04:11:52;100769.53;;;23.11;58.04
42067;BME280;27734;47.028;28.820;2022-07-29T04:14:25;100763.38;;;22.98;57.86
42067;BME280;27734;47.028;28.820;2022-07-29T04:16:57;100765.36;;;22.80;58.23
42067;BME280;27734;47.028;28.820;2022-07-29T04:19:36;100774.41;;;22.67;58.85
42067;BME280;27734;47.028;28.820;2022-07-29T04:22:15;100772.70;;;22.60;59.02
42067;BME280;27734;47.028;28.820;2022-07-29T04:24:47;100771.92;;;22.50;59.64
42067;BME280;27734;47.028;28.820;2022-07-29T04:27:33;100772.84;;;22.44;59.17
42067;BME280;27734;47.028;28.820;2022-07-29T04:30:25;100777.34;;;22.41;60.54
42067;BME280;27734;47.028;28.820;2022-07-29T04:32:59;100773.77;;;22.40;60.08
42067;BME280;27734;47.028;28.820;2022-07-29T04:35:33;100778.28;;;22.35;60.44
42067;BME280;27734;47.028;28.820;2022-07-29T04:38:16;100777.40;;;22.35;61.34
42067;BME280;27734;47.028;28.820;2022-07-29T04:40:58;100775.61;;;22.34;61.19
42067;BME280;27734;47.028;28.820;2022-07-29T04:43:30;100782.75;;;22.35;61.17
42067;BME280;27734;47.028;28.820;2022-07-29T04:46:10;100781.81;;;22.37;61.67
42067;BME280;27734;47.028;28.820;2022-07-29T04:48:58;100780.92;;;22.38;61.89
42067;BME280;27734;47.028;28.820;2022-07-29T04:51:49;100779.11;;;22.40;61.87
42067;BME280;27734;47.028;28.820;2022-07-29T04:54:22;100789.77;;;22.45;61.27
42067;BME280;27734;47.028;28.820;2022-07-29T04:56:54;100792.38;;;22.53;62.34
42067;BME280;27734;47.028;28.820;2022-07-29T04:59:25;100798.59;;;22.58;62.40
42067;BME280;27734;47.028;28.820;2022-07-29T05:01:57;100803.90;;;22.63;62.41
42067;BME280;27734;47.028;28.820;2022-07-29T05:04:38;100813.64;;;22.67;63.20
42067;BME280;27734;47.028;28.820;2022-07-29T05:07:31;100824.40;;;22.60;63.02
42067;BME280;27734;47.028;28.820;2022-07-29T05:10:08;100831.59;;;22.54;63.19
42067;BME280;27734;47.028;28.820;2022-07-29T05:12:55;100843.19;;;22.51;62.81
42067;BME280;27734;47.028;28.820;2022-07-29T05:15:30;100851.20;;;22.53;63.51
42067;BME280;27734;47.028;28.820;2022-07-29T05:18:12;100853.89;;;22.51;63.26
42067;BME280;27734;47.028;28.820;2022-07-29T05:20:57;100869.94;;;22.51;63.59
42067;BME280;27734;47.028;28.820;2022-07-29T05:23:39;100877.98;;;22.47;63.44
42067;BME280;27734;47.028;28.820;2022-07-29T05:26:28;100878.02;;;22.43;64.13
42067;BME280;27734;47.028;28.820;2022-07-29T05:29:12;100889.67;;;22.36;64.15
42067;BME280;27734;47.028;28.820;2022-07-29T05:31:48;100872.74;;;22.26;64.32
42067;BME280;27734;47.028;28.820;2022-07-29T05:34:25;100891.44;;;22.30;64.36
42067;BME280;27734;47.028;28.820;2022-07-29T05:37:11;100879.91;;;22.23;64.87
42067;BME280;27734;47.028;28.820;2022-07-29T05:39:49;100877.25;;;22.20;64.67
42067;BME280;27734;47.028;28.820;2022-07-29T05:42:21;100873.72;;;22.16;63.96
42067;BME280;27734;47.028;28.820;2022-07-29T05:44:53;100866.61;;;22.12;64.99
42067;BME280;27734;47.028;28.820;2022-07-29T05:47:31;100861.27;;;22.12;65.02
42067;BME280;27734;47.028;28.820;2022-07-29T05:50:32;100847.92;;;22.09;65.67
42067;BME280;27734;47.028;28.820;2022-07-29T05:59:43;100843.65;;;21.80;65.97
42067;BME280;27734;47.028;28.820;2022-07-29T06:02:31;100849.88;;;21.79;65.75
42067;BME280;27734;47.028;28.820;2022-07-29T06:05:16;100855.22;;;21.79;66.11
42067;BME280;27734;47.028;28.820;2022-07-29T06:08:08;100853.42;;;21.78;66.20
42067;BME280;27734;47.028;28.820;2022-07-29T06:10:51;100857.87;;;21.82;66.94
42067;BME280;27734;47.028;28.820;2022-07-29T06:13:33;100858.76;;;21.81;66.43
42067;BME280;27734;47.028;28.820;2022-07-29T06:16:12;100855.20;;;21.82;67.21
42067;BME280;27734;47.028;28.820;2022-07-29T06:18:55;100856.98;;;21.83;67.60
42067;BME280;27734;47.028;28.820;2022-07-29T06:25:05;100855.19;;;21.85;67.08
42067;BME280;27734;47.028;28.820;2022-07-29T06:34:52;100839.95;;;22.00;67.96
42067;BME280;27734;47.028;28.820;2022-07-29T06:37:46;100836.38;;;22.05;68.36
42067;BME280;27734;47.028;28.820;2022-07-29T06:43:44;100829.29;;;21.97;68.71
42067;BME280;27734;47.028;28.820;2022-07-29T06:46:20;100821.27;;;21.98;68.92
42067;BME280;27734;47.028;28.820;2022-07-29T06:49:13;100829.25;;;22.03;68.42
42067;BME280;27734;47.028;28.820;2022-07-29T06:52:12;100823.02;;;22.04;69.03
42067;BME280;27734;47.028;28.820;2022-07-29T06:55:18;100826.55;;;22.07;69.24
42067;BME280;27734;47.028;28.820;2022-07-29T06:58:16;100830.06;;;22.14;69.23
42067;BME280;27734;47.028;28.820;2022-07-29T07:04:37;100817.59;;;22.18;69.26
42067;BME280;27734;47.028;28.820;2022-07-29T07:07:15;100828.27;;;22.19;69.44
42067;BME280;27734;47.028;28.820;2022-07-29T07:37:03;100834.47;;;22.23;69.95
42067;BME280;27734;47.028;28.820;2022-07-29T07:40:06;100839.78;;;22.28;69.41
42067;BME280;27734;47.028;28.820;2022-07-29T07:50:03;100847.78;;;22.35;70.19
42067;BME280;27734;47.028;28.820;2022-07-29T07:53:27;100851.28;;;22.42;69.83
42067;BME280;27734;47.028;28.820;2022-07-29T07:56:47;100845.00;;;22.49;69.61
42067;BME280;27734;47.028;28.820;2022-07-29T08:13:43;100858.05;;;22.88;69.77
42067;BME280;27734;47.028;28.820;2022-07-29T08:16:24;100865.98;;;22.97;69.39
42067;BME280;27734;47.028;28.820;2022-07-29T08:19:15;100863.22;;;23.06;70.07
42067;BME280;27734;47.028;28.820;2022-07-29T08:21:51;100866.73;;;23.14;69.49
42067;BME280;27734;47.028;28.820;2022-07-29T08:25:01;100862.19;;;23.21;69.90
42067;BME280;27734;47.028;28.820;2022-07-29T08:28:25;100869.22;;;23.33;69.21
42067;BME280;27734;47.028;28.820;2022-07-29T08:31:33;100859.23;;;23.47;69.29
42067;BME280;27734;47.028;28.820;2022-07-29T08:37:28;100859.73;;;23.77;69.06
42067;BME280;27734;47.028;28.820;2022-07-29T08:40:13;100857.84;;;23.87;68.72
42067;BME280;27734;47.028;28.820;2022-07-29T08:43:13;100861.41;;;23.89;68.68
42067;BME280;27734;47.028;28.820;2022-07-29T08:45:55;100855.09;;;23.93;68.69
42067;BME280;27734;47.028;28.820;2022-07-29T08:48:45;100852.38;;;23.95;68.42
42067;BME280;27734;47.028;28.820;2022-07-29T08:51:25;100849.72;;;23.93;68.28
42067;BME280;27734;47.028;28.820;2022-07-29T08:54:11;100866.71;;;23.94;68.39
42067;BME280;27734;47.028;28.820;2022-07-29T08:56:57;100871.14;;;23.95;68.13
42067;BME280;27734;47.028;28.820;2022-07-29T08:59:37;100864.05;;;23.92;68.01
42067;BME280;27734;47.028;28.820;2022-07-29T09:02:18;100868.48;;;23.93;68.04
42067;BME280;27734;47.028;28.820;2022-07-29T09:04:49;100867.50;;;24.00;68.10
42067;BME280;27734;47.028;28.820;2022-07-29T09:07:24;100865.64;;;24.05;67.82
42067;BME280;27734;47.028;28.820;2022-07-29T09:09:59;100872.67;;;24.14;68.18
42067;BME280;27734;47.028;28.820;2022-07-29T09:12:36;100872.67;;;24.14;67.64
42067;BME280;27734;47.028;28.820;2022-07-29T09:15:11;100878.05;;;24.13;67.21
42067;BME280;27734;47.028;28.820;2022-07-29T09:17:52;100879.08;;;24.02;66.43
42067;BME280;27734;47.028;28.820;2022-07-29T09:20:52;100876.50;;;23.95;66.88
42067;BME280;27734;47.028;28.820;2022-07-29T09:24:00;100874.67;;;24.00;66.94
42067;BME280;27734;47.028;28.820;2022-07-29T09:26:52;100878.28;;;23.96;66.91
42067;BME280;27734;47.028;28.820;2022-07-29T09:30:10;100881.84;;;23.96;66.68
42067;BME280;27734;47.028;28.820;2022-07-29T09:33:09;100880.92;;;23.99;66.34
42067;BME280;27734;47.028;28.820;2022-07-29T09:36:10;100864.09;;;23.89;66.41
42067;BME280;27734;47.028;28.820;2022-07-29T09:39:11;100867.61;;;23.93;66.04
42067;BME280;27734;47.028;28.820;2022-07-29T09:41:53;100866.81;;;23.86;66.15
42067;BME280;27734;47.028;28.820;2022-07-29T09:45:01;100872.13;;;23.89;66.22
42067;BME280;27734;47.028;28.820;2022-07-29T09:48:21;100874.80;;;23.91;66.37
42067;BME280;27734;47.028;28.820;2022-07-29T09:52:06;100871.19;;;23.92;66.39
42067;BME280;27734;47.028;28.820;2022-07-29T09:54:46;100873.97;;;23.84;66.07
42067;BME280;27734;47.028;28.820;2022-07-29T09:57:33;100876.63;;;23.82;66.04
42067;BME280;27734;47.028;28.820;2022-07-29T10:00:12;100876.64;;;23.84;66.21
42067;BME280;27734;47.028;28.820;2022-07-29T10:02:56;100875.73;;;23.83;65.98
42067;BME280;27734;47.028;28.820;2022-07-29T10:05:39;100874.86;;;23.86;65.97
42067;BME280;27734;47.028;28.820;2022-07-29T10:08:27;100881.03;;;23.91;65.97
42067;BME280;27734;47.028;28.820;2022-07-29T10:11:13;100865.70;;;24.01;66.12
42067;BME280;27734;47.028;28.820;2022-07-29T10:13:58;100878.95;;;24.12;65.86
42067;BME280;27734;47.028;28.820;2022-07-29T10:16:50;100879.67;;;24.23;66.12
42067;BME280;27734;47.028;28.820;2022-07-29T10:19:23;100881.39;;;24.29;65.94
42067;BME280;27734;47.028;28.820;2022-07-29T10:22:01;100886.73;;;24.30;65.56
42067;BME280;27734;47.028;28.820;2022-07-29T10:24:34;100886.66;;;24.35;65.90
42067;BME280;27734;47.028;28.820;2022-07-29T10:27:08;100886.66;;;24.35;65.90
42067;BME280;27734;47.028;28.820;2022-07-29T10:29:41;100892.00;;;24.36;65.92
42067;BME280;27734;47.028;28.820;2022-07-29T10:32:42;100888.44;;;24.36;65.96
42067;BME280;27734;47.028;28.820;2022-07-29T10:35:26;100884.85;;;24.35;66.22
42067;BME280;27734;47.028;28.820;2022-07-29T10:41:47;100883.45;;;24.10;65.41
42067;BME280;27734;47.028;28.820;2022-07-29T10:44:27;100881.80;;;23.99;65.73
42067;BME280;27734;47.028;28.820;2022-07-29T10:47:04;100883.56;;;24.02;65.82
42067;BME280;27734;47.028;28.820;2022-07-29T10:50:13;100878.16;;;24.05;66.01
42067;BME280;27734;47.028;28.820;2022-07-29T10:53:04;100869.22;;;24.06;66.20
42067;BME280;27734;47.028;28.820;2022-07-29T10:55:46;100873.67;;;24.05;66.17
42067;BME280;27734;47.028;28.820;2022-07-29T10:58:25;100872.73;;;24.10;66.29
42067;BME280;27734;47.028;28.820;2022-07-29T11:01:28;100878.08;;;24.11;66.49
42067;BME280;27734;47.028;28.820;2022-07-29T11:04:03;100892.44;;;24.05;66.29
42067;BME280;27734;47.028;28.820;2022-07-29T11:07:09;100881.72;;;24.05;66.36
42067;BME280;27734;47.028;28.820;2022-07-29T11:10:30;100880.86;;;24.03;66.76
42067;BME280;27734;47.028;28.820;2022-07-29T11:13:52;100878.16;;;24.05;66.56
42067;BME280;27734;47.028;28.820;2022-07-29T11:23:45;100887.02;;;24.10;66.80
42067;BME280;27734;47.028;28.820;2022-07-29T11:26:49;100882.56;;;24.11;66.96
42067;BME280;27734;47.028;28.820;2022-07-29T11:30:08;100883.45;;;24.10;67.10
42067;BME280;27734;47.028;28.820;2022-07-29T11:33:48;100879.03;;;24.05;67.33
42067;BME280;27734;47.028;28.820;2022-07-29T11:37:18;100871.92;;;24.04;67.35
42067;BME280;27734;47.028;28.820;2022-07-29T11:47:40;100872.17;;;23.86;67.45
42067;BME280;27734;47.028;28.820;2022-07-29T11:54:23;100875.84;;;23.76;67.88
42067;BME280;27734;47.028;28.820;2022-07-29T11:57:08;100877.62;;;23.77;67.87
42067;BME280;27734;47.028;28.820;2022-07-29T12:06:18;100870.45;;;23.77;67.95
42067;BME280;27734;47.028;28.820;2022-07-29T12:08:54;100869.55;;;23.80;68.17
42067;BME280;27734;47.028;28.820;2022-07-29T12:11:33;100864.19;;;23.80;68.18
42067;BME280;27734;47.028;28.820;2022-07-29T12:17:08;100863.23;;;23.82;68.44
42067;BME280;27734;47.028;28.820;2022-07-29T12:20:03;100865.03;;;23.85;68.49
42067;BME280;27734;47.028;28.820;2022-07-29T12:23:04;100863.20;;;23.87;68.53
42067;BME280;27734;47.028;28.820;2022-07-29T12:28:39;100860.34;;;24.01;68.23
42067;BME280;27734;47.028;28.820;2022-07-29T12:31:17;100852.19;;;24.09;68.19
42067;BME280;27734;47.028;28.820;2022-07-29T12:36:53;100851.02;;;24.28;68.36
42067;BME280;27734;47.028;28.820;2022-07-29T12:42:56;100841.75;;;24.48;68.27
42067;BME280;27734;47.028;28.820;2022-07-29T12:45:48;100841.72;;;24.49;68.39
42067;BME280;27734;47.028;28.820;2022-07-29T12:52:31;100834.56;;;24.51;67.68
42067;BME280;27734;47.028;28.820;2022-07-29T12:55:31;100822.00;;;24.53;67.84
42067;BME280;27734;47.028;28.820;2022-07-29T12:58:27;100824.53;;;24.64;67.91
42067;BME280;27734;47.028;28.820;2022-07-29T13:01:41;100816.21;;;24.80;68.14
42067;BME280;27734;47.028;28.820;2022-07-29T13:04:43;100813.27;;;24.93;67.68
42067;BME280;27734;47.028;28.820;2022-07-29T13:07:43;100799.73;;;25.00;66.72
42067;BME280;27734;47.028;28.820;2022-07-29T13:11:01;100796.84;;;25.10;67.12
42067;BME280;27734;47.028;28.820;2022-07-29T13:20:54;100788.58;;;25.21;66.20
42067;BME280;27734;47.028;28.820;2022-07-29T13:23:34;100785.83;;;25.24;66.13
42067;BME280;27734;47.028;28.820;2022-07-29T13:26:36;100787.67;;;25.21;65.50
42067;BME280;27734;47.028;28.820;2022-07-29T13:32:45;100775.90;;;25.28;65.65
42067;BME280;27734;47.028;28.820;2022-07-29T13:36:10;100773.21;;;25.28;65.13
42067;BME280;27734;47.028;28.820;2022-07-29T13:38:45;100764.38;;;25.23;64.82
42067;BME280;27734;47.028;28.820;2022-07-29T13:41:27;100766.13;;;25.24;64.77
42067;BME280;27734;47.028;28.820;2022-07-29T13:44:03;100760.84;;;25.19;64.70
42067;BME280;27734;47.028;28.820;2022-07-29T13:46:42;100759.91;;;25.22;64.60
42067;BME280;27734;47.028;28.820;2022-07-29T13:49:29;100756.23;;;25.27;65.18
42067;BME280;27734;47.028;28.820;2022-07-29T13:52:18;100750.89;;;25.26;64.56
42067;BME280;27734;47.028;28.820;2022-07-29T13:54:54;100751.80;;;25.25;64.67
42067;BME280;27734;47.028;28.820;2022-07-29T14:00:15;100749.98;;;25.25;64.74
42067;BME280;27734;47.028;28.820;2022-07-29T14:02:47;100741.92;;;25.25;64.00
42067;BME280;27734;47.028;28.820;2022-07-29T14:05:17;100735.68;;;25.25;64.71
42067;BME280;27734;47.028;28.820;2022-07-29T14:07:51;100742.83;;;25.26;64.31
42067;BME280;27734;47.028;28.820;2022-07-29T14:10:22;100736.45;;;25.32;64.30
42067;BME280;27734;47.028;28.820;2022-07-29T14:12:54;100739.05;;;25.36;64.14
42067;BME280;27734;47.028;28.820;2022-07-29T14:15:29;100730.25;;;25.28;63.01
42067;BME280;27734;47.028;28.820;2022-07-29T14:18:00;100735.61;;;25.28;63.33
42067;BME280;27734;47.028;28.820;2022-07-29T14:20:31;100731.83;;;25.38;63.69
42067;BME280;27734;47.028;28.820;2022-07-29T14:23:03;100725.27;;;25.52;63.34
42067;BME280;27734;47.028;28.820;2022-07-29T14:25:39;100724.13;;;25.63;63.85
42067;BME280;27734;47.028;28.820;2022-07-29T14:28:22;100732.73;;;25.78;63.79
42067;BME280;27734;47.028;28.820;2022-07-29T14:30:52;100730.78;;;25.84;63.55
42067;BME280;27734;47.028;28.820;2022-07-29T14:33:22;100727.83;;;25.95;63.12
42067;BME280;27734;47.028;28.820;2022-07-29T14:35:54;100728.66;;;25.99;63.13
42067;BME280;27734;47.028;28.820;2022-07-29T14:38:23;100722.38;;;26.00;62.60
42067;BME280;27734;47.028;28.820;2022-07-29T14:40:52;100724.12;;;26.03;62.65
42067;BME280;27734;47.028;28.820;2022-07-29T14:43:22;100722.27;;;26.05;62.58
42067;BME280;27734;47.028;28.820;2022-07-29T14:45:51;100718.73;;;26.03;62.51
42067;BME280;27734;47.028;28.820;2022-07-29T14:48:20;100711.73;;;25.94;62.24
42067;BME280;27734;47.028;28.820;2022-07-29T14:50:49;100709.34;;;25.81;61.90
42067;BME280;27734;47.028;28.820;2022-07-29T14:53:18;100708.63;;;25.75;62.23
42067;BME280;27734;47.028;28.820;2022-07-29T14:55:47;100705.24;;;25.67;62.16
42067;BME280;27734;47.028;28.820;2022-07-29T14:58:17;100704.52;;;25.58;62.47
42067;BME280;27734;47.028;28.820;2022-07-29T15:00:48;100700.26;;;25.50;62.06
42067;BME280;27734;47.028;28.820;2022-07-29T15:03:17;100699.49;;;25.43;62.20
42067;BME280;27734;47.028;28.820;2022-07-29T15:05:46;100698.79;;;25.35;61.97
42067;BME280;27734;47.028;28.820;2022-07-29T15:08:15;100698.05;;;25.26;61.97
42067;BME280;27734;47.028;28.820;2022-07-29T15:10:44;100689.22;;;25.21;62.06
42067;BME280;27734;47.028;28.820;2022-07-29T15:13:14;100693.75;;;25.18;62.21
42067;BME280;27734;47.028;28.820;2022-07-29T15:15:43;100689.36;;;25.15;62.31
42067;BME280;27734;47.028;28.820;2022-07-29T15:18:15;100693.02;;;25.11;62.70
42067;BME280;27734;47.028;28.820;2022-07-29T15:20:45;100691.33;;;25.05;62.21
42067;BME280;27734;47.028;28.820;2022-07-29T15:23:14;100689.71;;;24.98;62.72
42067;BME280;27734;47.028;28.820;2022-07-29T15:25:46;100696.11;;;24.91;62.39
42067;BME280;27734;47.028;28.820;2022-07-29T15:28:20;100698.95;;;24.83;62.32
42067;BME280;27734;47.028;28.820;2022-07-29T15:30:48;100706.22;;;24.78;62.81
42067;BME280;27734;47.028;28.820;2022-07-29T15:33:16;100705.44;;;24.73;62.37
42067;BME280;27734;47.028;28.820;2022-07-29T15:35:46;100718.94;;;24.68;62.68
42067;BME280;27734;47.028;28.820;2022-07-29T15:38:16;100719.00;;;24.65;62.33
42067;BME280;27734;47.028;28.820;2022-07-29T15:40:45;100716.40;;;24.61;62.48
42067;BME280;27734;47.028;28.820;2022-07-29T15:43:15;100717.33;;;24.58;62.56
42067;BME280;27734;47.028;28.820;2022-07-29T15:45:44;100724.50;;;24.56;62.92
42067;BME280;27734;47.028;28.820;2022-07-29T15:48:33;100722.72;;;24.55;62.65
42067;BME280;27734;47.028;28.820;2022-07-29T15:51:05;100708.48;;;24.51;62.56
42067;BME280;27734;47.028;28.820;2022-07-29T15:53:34;100715.66;;;24.49;62.49
42067;BME280;27734;47.028;28.820;2022-07-29T15:56:04;100723.67;;;24.51;62.72
42067;BME280;27734;47.028;28.820;2022-07-29T15:58:32;100722.78;;;24.52;62.61
42067;BME280;27734;47.028;28.820;2022-07-29T16:01:01;100717.36;;;24.55;62.69
42067;BME280;27734;47.028;28.820;2022-07-29T16:03:30;100716.45;;;24.56;62.82
42067;BME280;27734;47.028;28.820;2022-07-29T16:06:00;100725.41;;;24.55;62.27